createdAt,value
2019-05-09T06:46:02.377Z,50.32
2019-05-09T06:47:02.324Z,49.60
2019-05-09T06:48:02.372Z,50.02
2019-05-09T06:49:20.192Z,48.68
2019-05-09T06:50:03.304Z,49.19
2019-05-09T06:51:02.292Z,48.99
2019-05-09T06:52:02.316Z,49.81
2019-05-09T06:53:02.329Z,49.81
2019-05-09T06:54:02.266Z,49.09
2019-05-09T06:55:02.238Z,49.60
2019-05-09T06:56:02.234Z,49.81
2019-05-09T06:57:02.286Z,49.91
2019-05-09T06:58:02.234Z,49.30
2019-05-09T06:59:02.202Z,48.66
2019-05-09T07:00:02.201Z,49.17
2019-05-09T07:01:02.194Z,49.27
2019-05-09T07:02:02.174Z,49.17
2019-05-09T07:03:02.165Z,47.53
2019-05-09T07:04:02.238Z,48.14
2019-05-09T07:05:02.144Z,47.53
2019-05-09T07:06:02.157Z,48.14
2019-05-09T07:07:02.152Z,47.94
2019-05-09T07:08:02.193Z,47.02
2019-05-09T07:09:02.088Z,46.40
2019-05-09T07:10:02.100Z,47.30
2019-05-09T07:11:02.076Z,48.02
2019-05-09T07:12:02.081Z,47.71
2019-05-09T07:13:02.070Z,47.20
2019-05-09T07:14:02.050Z,46.25
2019-05-09T07:15:02.027Z,46.56
2019-05-09T07:16:02.024Z,45.95
2019-05-09T07:17:10.553Z,46.46
2019-05-09T07:18:01.994Z,45.95
2019-05-09T07:19:01.984Z,46.87
2019-05-09T07:20:01.977Z,46.05
2019-05-09T07:21:01.959Z,46.64
2019-05-09T07:22:01.988Z,45.21
2019-05-09T07:23:01.953Z,46.44
2019-05-09T07:24:02.002Z,46.31
2019-05-09T07:25:06.436Z,46.83
2019-05-09T07:26:02.907Z,45.90
2019-05-09T07:27:01.950Z,45.90
2019-05-09T07:28:01.923Z,46.11
2019-05-09T07:29:01.874Z,46.62
2019-05-09T07:30:01.915Z,46.21
2019-05-09T07:31:01.855Z,45.18
2019-05-09T07:32:01.868Z,45.09
2019-05-09T07:33:01.832Z,43.85
2019-05-09T07:34:01.853Z,44.98
2019-05-09T07:35:01.844Z,44.98
2019-05-09T07:36:01.804Z,44.37
2019-05-09T07:37:01.810Z,43.63
2019-05-09T07:38:01.789Z,44.35
2019-05-09T07:39:01.791Z,44.86
2019-05-09T07:40:01.763Z,45.68
2019-05-09T07:41:01.768Z,44.35
2019-05-09T07:42:01.776Z,44.04
2019-05-09T07:43:01.725Z,44.45
2019-05-09T07:44:01.758Z,43.63
2019-05-09T07:45:01.729Z,44.24
2019-05-09T07:46:01.700Z,43.32
2019-05-09T07:47:01.688Z,43.02
2019-05-09T07:48:01.745Z,42.99
2019-05-09T07:49:10.579Z,42.99
2019-05-09T07:50:01.643Z,43.32
2019-05-09T07:51:01.678Z,42.10
2019-05-09T07:52:06.673Z,42.90
2019-05-09T07:53:02.608Z,43.12
2019-05-09T07:54:16.338Z,43.63
2019-05-09T07:55:02.594Z,43.94
2019-05-09T07:56:01.586Z,43.12
2019-05-09T07:57:01.577Z,42.71
2019-05-09T07:58:01.614Z,42.90
2019-05-09T07:59:01.551Z,42.18
2019-05-09T08:00:01.557Z,42.07
2019-05-09T08:01:01.727Z,42.28
2019-05-09T08:02:01.519Z,42.97
2019-05-09T08:03:01.614Z,42.77
2019-05-09T08:04:01.492Z,42.38
2019-05-09T08:05:01.478Z,42.87
2019-05-09T08:06:01.473Z,41.75
2019-05-09T08:07:01.460Z,40.52
2019-05-09T08:08:01.531Z,40.52
2019-05-09T08:09:01.462Z,41.85
2019-05-09T08:10:01.437Z,41.77
2019-05-09T08:11:01.411Z,41.44
2019-05-09T08:12:01.406Z,41.24
2019-05-09T08:13:01.422Z,41.03
2019-05-09T08:14:01.386Z,41.11
2019-05-09T08:15:16.399Z,41.32
2019-05-09T08:16:02.363Z,39.46
2019-05-09T08:17:01.367Z,39.56
2019-05-09T08:18:01.340Z,39.05
2019-05-09T08:19:01.342Z,38.54
2019-05-09T08:20:01.382Z,38.85
2019-05-09T08:21:08.618Z,39.17
2019-05-09T08:22:01.295Z,38.64
2019-05-09T08:23:02.289Z,38.64
2019-05-09T08:24:01.315Z,39.26
2019-05-09T08:25:01.266Z,39.48
2019-05-09T08:26:04.395Z,39.58
2019-05-09T08:27:01.275Z,39.48
2019-05-09T08:28:01.239Z,39.48
2019-05-09T08:29:01.302Z,40.09
2019-05-09T08:30:01.240Z,41.71
2019-05-09T08:31:01.208Z,40.89
2019-05-09T08:32:01.344Z,40.69
2019-05-09T08:33:01.181Z,40.38
2019-05-09T08:34:01.166Z,40.97
2019-05-09T08:35:01.158Z,41.59
2019-05-09T08:36:01.194Z,40.77
2019-05-09T08:37:01.132Z,40.65
2019-05-09T08:38:01.175Z,40.85
2019-05-09T08:39:01.133Z,40.44
2019-05-09T08:40:01.144Z,40.67
2019-05-09T08:41:01.092Z,40.95
2019-05-09T08:42:01.082Z,40.55
2019-05-09T08:43:01.088Z,40.85
2019-05-09T08:44:01.123Z,39.22
2019-05-09T08:45:01.068Z,39.53
2019-05-09T08:46:01.091Z,40.53
2019-05-09T08:47:01.022Z,40.94
2019-05-09T08:48:01.067Z,40.42
2019-05-09T08:49:01.003Z,40.53
2019-05-09T08:50:01.004Z,38.28
2019-05-09T08:51:00.998Z,39.51
2019-05-09T08:52:10.252Z,39.40
2019-05-09T08:54:10.769Z,39.69
2019-05-09T08:55:10.731Z,40.53
2019-05-09T08:56:13.026Z,38.98
2019-05-09T08:57:10.699Z,38.78
2019-05-09T08:58:10.694Z,38.98
2019-05-09T08:59:10.684Z,38.78
2019-05-09T09:00:10.742Z,38.78
2019-05-09T09:01:11.704Z,39.10
2019-05-09T09:02:15.317Z,38.08
2019-05-09T09:03:11.637Z,38.26
2019-05-09T09:04:10.630Z,38.57
2019-05-09T09:05:13.686Z,39.39
2019-05-09T09:06:10.602Z,39.08
2019-05-09T09:07:10.597Z,39.57
2019-05-09T09:08:10.641Z,39.57
2019-05-09T09:09:10.751Z,38.24
2019-05-09T09:10:10.558Z,39.37
2019-05-09T09:11:10.595Z,39.57
2019-05-09T09:12:26.108Z,39.04
2019-05-09T09:13:11.525Z,39.15
2019-05-09T09:14:10.565Z,38.23
2019-05-09T09:15:10.510Z,38.43
2019-05-09T09:16:18.464Z,38.74
2019-05-09T09:17:11.505Z,38.43
2019-05-09T09:18:10.477Z,39.55
2019-05-09T09:19:10.466Z,38.53
2019-05-09T09:20:10.491Z,38.33
2019-05-09T09:21:10.439Z,38.43
2019-05-09T09:22:10.473Z,39.04
2019-05-09T09:23:10.418Z,38.84
2019-05-09T09:24:10.408Z,38.94
2019-05-09T09:25:18.537Z,39.04
2019-05-09T09:26:10.388Z,38.23
2019-05-09T09:27:10.380Z,38.96
2019-05-09T09:28:10.368Z,38.74
2019-05-09T09:29:10.354Z,38.84
2019-05-09T09:30:20.464Z,38.33
2019-05-09T09:31:11.341Z,38.12
2019-05-09T09:32:10.322Z,37.92
2019-05-09T09:33:13.863Z,38.74
2019-05-09T09:34:10.316Z,38.43
2019-05-09T09:35:10.293Z,39.23
2019-05-09T09:36:10.277Z,39.23
2019-05-09T09:37:11.500Z,38.82
2019-05-09T09:38:10.265Z,38.90
2019-05-09T09:39:10.261Z,37.17
2019-05-09T09:40:10.252Z,36.99
2019-05-09T09:41:10.225Z,37.60
2019-05-09T09:42:10.219Z,36.79
2019-05-09T09:43:10.244Z,36.68
2019-05-09T09:44:10.247Z,36.99
2019-05-09T09:45:10.215Z,37.01
2019-05-09T09:46:14.401Z,37.21
2019-05-09T09:47:10.153Z,37.82
2019-05-09T09:48:10.149Z,38.42
2019-05-09T09:49:10.138Z,38.11
2019-05-09T09:50:10.164Z,37.49
2019-05-09T09:51:10.161Z,38.92
2019-05-09T09:52:10.120Z,36.88
2019-05-09T09:53:10.101Z,37.80
2019-05-09T09:54:10.080Z,37.09
2019-05-09T09:55:10.078Z,37.70
2019-05-09T09:56:10.127Z,37.60
2019-05-09T09:57:19.027Z,36.79
2019-05-09T09:58:10.039Z,36.66
2019-05-09T09:59:10.024Z,37.49
2019-05-09T10:00:10.036Z,37.58
2019-05-09T10:01:10.033Z,38.40
2019-05-09T10:02:10.465Z,38.58
2019-05-09T10:03:10.000Z,38.99
2019-05-09T10:04:19.601Z,37.36
2019-05-09T10:05:10.972Z,37.66
2019-05-09T10:06:10.034Z,37.16
2019-05-09T10:07:09.958Z,37.77
2019-05-09T10:08:13.832Z,37.56
2019-05-09T10:09:09.944Z,36.85
2019-05-09T10:10:09.952Z,37.36
2019-05-09T10:11:09.898Z,36.65
2019-05-09T10:12:09.933Z,37.85
2019-05-09T10:13:10.794Z,36.55
2019-05-09T10:14:09.926Z,37.05
2019-05-09T10:15:09.906Z,36.04
2019-05-09T10:16:24.598Z,36.97
2019-05-09T10:17:10.874Z,36.95
2019-05-09T10:18:09.823Z,37.36
2019-05-09T10:19:09.814Z,36.85
2019-05-09T10:20:09.801Z,37.46
2019-05-09T10:21:09.855Z,37.77
2019-05-09T10:22:09.779Z,38.97
2019-05-09T10:23:17.834Z,37.54
2019-05-09T10:24:10.755Z,35.92
2019-05-09T10:25:09.750Z,36.75
2019-05-09T10:26:09.758Z,36.95
2019-05-09T10:27:09.764Z,37.46
2019-05-09T10:28:09.726Z,36.95
2019-05-09T10:29:17.734Z,36.75
2019-05-09T10:30:09.697Z,37.26
2019-05-09T10:31:09.687Z,36.95
2019-05-09T10:32:09.676Z,36.75
2019-05-09T10:33:09.669Z,37.75
2019-05-09T10:34:11.119Z,37.14
2019-05-09T10:35:09.660Z,36.02
2019-05-09T10:36:09.632Z,36.93
2019-05-09T10:37:09.615Z,37.75
2019-05-09T10:38:09.630Z,37.73
2019-05-09T10:39:09.689Z,35.80
2019-05-09T10:40:09.603Z,36.21
2019-05-09T10:41:11.323Z,36.02
2019-05-09T10:42:09.567Z,36.53
2019-05-09T10:43:09.553Z,35.31
2019-05-09T10:44:09.539Z,36.82
2019-05-09T10:45:09.615Z,36.00
2019-05-09T10:46:09.526Z,36.31
2019-05-09T10:47:09.516Z,37.23
2019-05-09T10:48:09.572Z,36.61
2019-05-09T10:49:09.482Z,36.00
2019-05-09T10:50:09.477Z,36.19
2019-05-09T10:51:10.696Z,35.99
2019-05-09T10:52:09.459Z,35.88
2019-05-09T10:53:09.480Z,35.27
2019-05-09T10:54:09.435Z,36.17
2019-05-09T10:55:09.459Z,35.77
2019-05-09T10:56:09.434Z,34.66
2019-05-09T10:57:09.398Z,35.68
2019-05-09T10:58:09.386Z,36.69
2019-05-09T10:59:09.440Z,35.66
2019-05-09T11:00:09.376Z,34.55
2019-05-09T11:01:18.455Z,35.16
2019-05-09T11:02:09.709Z,35.46
2019-05-09T11:03:09.331Z,36.47
2019-05-09T11:04:09.331Z,35.05
2019-05-09T11:05:09.315Z,35.46
2019-05-09T11:06:09.365Z,35.36
2019-05-09T11:07:09.287Z,36.07
2019-05-09T11:08:09.352Z,35.97
2019-05-09T11:09:09.357Z,33.94
2019-05-09T11:10:24.416Z,34.97
2019-05-09T11:11:10.337Z,34.05
2019-05-09T11:12:09.244Z,34.26
2019-05-09T11:13:09.232Z,34.46
2019-05-09T11:14:09.241Z,34.87
2019-05-09T11:15:09.324Z,35.05
2019-05-09T11:16:09.186Z,35.56
2019-05-09T11:17:17.671Z,35.46
2019-05-09T11:18:10.171Z,35.26
2019-05-09T11:19:09.159Z,35.64
2019-05-09T11:20:09.148Z,35.24
2019-05-09T11:21:09.135Z,35.83
2019-05-09T11:22:09.124Z,35.53
2019-05-09T11:23:09.123Z,35.95
2019-05-09T11:24:09.138Z,35.24
2019-05-09T11:25:09.216Z,36.88
2019-05-09T11:26:09.084Z,37.27
2019-05-09T11:27:09.077Z,36.85
2019-05-09T11:28:14.189Z,35.83
2019-05-09T11:29:10.052Z,36.14
2019-05-09T11:30:09.066Z,36.93
2019-05-09T11:31:09.322Z,35.92
2019-05-09T11:32:09.049Z,36.73
2019-05-09T11:33:18.191Z,35.51
2019-05-09T11:34:09.212Z,35.11
2019-05-09T11:35:09.221Z,35.92
2019-05-09T11:36:09.886Z,35.11
2019-05-09T11:37:08.958Z,35.82
2019-05-09T11:38:08.975Z,36.53
2019-05-09T11:39:10.708Z,35.92
2019-05-09T11:40:08.975Z,35.61
2019-05-09T11:41:09.031Z,34.60
2019-05-09T11:42:08.920Z,34.80
2019-05-09T11:43:08.892Z,35.02
2019-05-09T11:44:08.899Z,35.94
2019-05-09T11:45:08.883Z,35.63
2019-05-09T11:46:10.468Z,34.70
2019-05-09T11:47:27.663Z,34.52
2019-05-09T11:48:09.838Z,37.24
2019-05-09T11:49:08.862Z,35.31
2019-05-09T11:50:09.057Z,35.21
2019-05-09T11:51:09.073Z,34.80
2019-05-09T11:52:08.840Z,35.41
2019-05-09T11:53:09.003Z,34.21
2019-05-09T11:54:09.256Z,34.31
2019-05-09T11:55:27.462Z,34.52
2019-05-09T11:56:09.761Z,35.22
2019-05-09T11:57:08.747Z,35.61
2019-05-09T11:58:08.769Z,34.11
2019-05-09T11:59:08.718Z,35.02
2019-05-09T12:00:08.770Z,35.12
2019-05-09T12:01:08.704Z,34.52
2019-05-09T12:02:09.033Z,35.42
2019-05-09T12:03:09.238Z,34.92
2019-05-09T12:04:08.681Z,33.80
2019-05-09T12:05:19.130Z,34.33
2019-05-09T12:06:08.652Z,35.36
2019-05-09T12:07:08.631Z,35.05
2019-05-09T12:08:08.627Z,35.36
2019-05-09T12:09:08.843Z,35.95
2019-05-09T12:10:08.620Z,35.24
2019-05-09T12:11:08.633Z,36.56
2019-05-09T12:12:08.616Z,34.94
2019-05-09T12:13:08.753Z,35.24
2019-05-09T12:14:08.972Z,34.92
2019-05-09T12:15:08.987Z,36.65
2019-05-09T12:16:08.537Z,35.61
2019-05-09T12:17:08.527Z,34.50
2019-05-09T12:18:11.331Z,34.17
2019-05-09T12:19:08.508Z,33.47
2019-05-09T12:20:12.954Z,32.96
2019-05-09T12:21:08.636Z,32.44
2019-05-09T12:22:09.056Z,33.04
2019-05-09T12:23:08.475Z,33.45
2019-05-09T12:24:09.105Z,32.64
2019-05-09T12:25:08.688Z,32.74
2019-05-09T12:26:08.474Z,32.84
2019-05-09T12:27:08.925Z,32.96
2019-05-09T12:28:08.409Z,32.65
2019-05-09T12:29:08.760Z,32.76
2019-05-09T12:30:08.384Z,32.86
2019-05-09T12:31:08.417Z,32.98
2019-05-09T12:32:08.941Z,32.76
2019-05-09T12:33:08.758Z,32.76
2019-05-09T12:34:09.056Z,32.95
2019-05-09T12:35:08.997Z,32.54
2019-05-09T12:36:09.187Z,33.25
2019-05-09T12:37:15.578Z,32.44
2019-05-09T12:38:08.492Z,32.53
2019-05-09T12:39:08.894Z,33.03
2019-05-09T12:40:08.492Z,31.61
2019-05-09T12:41:08.266Z,31.92
2019-05-09T12:42:08.920Z,31.10
2019-05-09T12:43:09.106Z,32.73
2019-05-09T12:44:08.951Z,31.21
2019-05-09T12:45:08.478Z,30.62
2019-05-09T12:46:08.690Z,32.14
2019-05-09T12:47:08.199Z,32.44
2019-05-09T12:48:14.872Z,33.04
2019-05-09T12:49:09.243Z,31.30
2019-05-09T12:50:08.681Z,31.30
2019-05-09T12:51:08.326Z,32.32
2019-05-09T12:52:08.298Z,32.93
2019-05-09T12:53:08.148Z,31.30
2019-05-09T12:54:08.693Z,31.09
2019-05-09T12:55:08.391Z,31.29
2019-05-09T12:56:08.287Z,30.89
2019-05-09T12:57:08.189Z,30.60
2019-05-09T12:58:09.779Z,31.70
2019-05-09T12:59:08.829Z,30.19
2019-05-09T13:00:08.066Z,30.70
2019-05-09T13:01:08.050Z,30.90
2019-05-09T13:02:08.083Z,30.70
2019-05-09T13:03:08.778Z,30.80
2019-05-09T13:04:09.691Z,30.19
2019-05-09T13:05:08.196Z,30.40
2019-05-09T13:06:08.382Z,29.89
2019-05-09T13:07:08.579Z,30.19
2019-05-09T13:08:10.456Z,30.80
2019-05-09T13:09:17.621Z,30.70
2019-05-09T13:10:09.003Z,30.19
2019-05-09T13:11:08.236Z,30.19
2019-05-09T13:12:08.605Z,31.61
2019-05-09T13:13:08.850Z,30.40
2019-05-09T13:14:10.054Z,30.31
2019-05-09T13:15:08.914Z,30.40
2019-05-09T13:16:12.000Z,30.19
2019-05-09T13:17:08.913Z,30.29
2019-05-09T13:18:21.409Z,31.21
2019-05-09T13:19:08.908Z,30.89
2019-05-09T13:20:08.078Z,30.70
2019-05-09T13:21:07.926Z,30.58
2019-05-09T13:22:08.345Z,30.79
2019-05-09T13:23:08.836Z,31.60
2019-05-09T13:24:08.543Z,30.16
2019-05-09T13:25:09.592Z,30.47
2019-05-09T13:26:08.271Z,31.07
2019-05-09T13:27:08.121Z,29.66
2019-05-09T13:28:08.390Z,31.88
2019-05-09T13:29:08.231Z,29.96
2019-05-09T13:30:08.395Z,30.67
2019-05-09T13:31:08.349Z,30.36
2019-05-09T13:32:08.749Z,30.87
2019-05-09T13:33:10.710Z,30.08
2019-05-09T13:34:08.171Z,29.69
2019-05-09T13:35:07.683Z,30.99
2019-05-09T13:36:09.214Z,30.38
2019-05-09T13:37:09.158Z,30.68
2019-05-09T13:38:08.683Z,30.89
2019-05-09T13:39:08.606Z,31.09
2019-05-09T13:40:08.611Z,30.58
2019-05-09T13:41:14.593Z,30.68
2019-05-09T13:42:08.197Z,31.09
2019-05-09T13:43:08.963Z,30.68
2019-05-09T13:44:13.183Z,30.87
2019-05-09T13:45:08.586Z,30.67
2019-05-09T13:46:08.960Z,30.57
2019-05-09T13:47:10.678Z,30.67
2019-05-09T13:48:23.862Z,30.16
2019-05-09T13:49:14.856Z,30.57
2019-05-09T13:50:09.077Z,30.15
2019-05-09T13:51:07.788Z,29.24
2019-05-09T13:52:10.182Z,30.16
2019-05-09T13:53:07.692Z,30.47
2019-05-09T13:54:07.467Z,30.67
2019-05-09T13:55:08.694Z,30.16
2019-05-09T13:56:08.477Z,30.87
2019-05-09T13:57:08.707Z,30.57
2019-05-09T13:58:07.623Z,30.67
2019-05-09T13:59:08.242Z,30.77
2019-05-09T14:00:08.744Z,31.18
2019-05-09T14:01:07.891Z,30.77
2019-05-09T14:02:07.442Z,32.07
2019-05-09T14:03:08.087Z,31.26
2019-05-09T14:04:08.063Z,31.85
2019-05-09T14:05:08.876Z,31.35
2019-05-09T14:06:08.908Z,31.57
2019-05-09T14:07:08.291Z,32.38
2019-05-09T14:08:09.096Z,31.26
2019-05-09T14:09:10.208Z,32.58
2019-05-09T14:10:08.953Z,33.09
2019-05-09T14:11:08.284Z,33.09
2019-05-09T14:12:09.329Z,32.07
2019-05-09T14:13:14.321Z,33.09
2019-05-09T14:14:07.303Z,33.09
2019-05-09T14:15:08.395Z,32.68
2019-05-09T14:16:18.912Z,32.97
2019-05-09T14:17:08.919Z,32.67
2019-05-09T14:18:08.315Z,32.76
2019-05-09T14:19:26.120Z,31.06
2019-05-09T14:20:08.961Z,31.55
2019-05-09T14:21:07.781Z,32.88
2019-05-09T14:22:08.200Z,32.07
2019-05-09T14:23:11.459Z,32.28
2019-05-09T14:24:14.908Z,31.46
2019-05-09T14:25:11.680Z,31.88
2019-05-09T14:26:09.376Z,32.39
2019-05-09T14:27:08.233Z,32.28
2019-05-09T14:28:08.511Z,32.88
2019-05-09T14:29:07.102Z,31.57
2019-05-09T14:30:08.152Z,30.76
2019-05-09T14:31:07.626Z,30.86
2019-05-09T14:32:07.060Z,30.55
2019-05-09T14:33:08.241Z,31.18
2019-05-09T14:34:08.806Z,31.46
2019-05-09T14:35:08.497Z,31.57
2019-05-09T14:36:08.203Z,30.55
2019-05-09T14:37:09.627Z,30.96
2019-05-09T14:38:08.862Z,31.46
2019-05-09T14:39:09.230Z,30.74
2019-05-09T14:40:10.129Z,31.67
2019-05-09T14:41:07.828Z,30.55
2019-05-09T14:42:09.205Z,31.67
2019-05-09T14:43:09.157Z,31.06
2019-05-09T14:44:09.367Z,31.88
2019-05-09T14:45:20.400Z,31.28
2019-05-09T14:46:08.177Z,31.48
2019-05-09T14:47:08.106Z,30.87
2019-05-09T14:48:07.978Z,31.60
2019-05-09T14:49:07.946Z,32.39
2019-05-09T14:50:06.917Z,31.90
2019-05-09T14:51:07.614Z,32.29
2019-05-09T14:52:08.118Z,31.38
2019-05-09T14:53:08.702Z,32.41
2019-05-09T14:54:08.371Z,32.59
2019-05-09T14:55:08.239Z,31.88
2019-05-09T14:56:08.748Z,31.78
2019-05-09T14:57:09.466Z,30.87
2019-05-09T14:58:07.812Z,30.58
2019-05-09T14:59:09.080Z,31.70
2019-05-09T15:00:07.789Z,31.29
2019-05-09T15:01:08.612Z,30.89
2019-05-09T15:02:09.011Z,31.70
2019-05-09T15:03:08.216Z,31.49
2019-05-09T15:04:09.008Z,31.80
2019-05-09T15:05:09.490Z,31.92
2019-05-09T15:06:07.533Z,31.61
2019-05-09T15:07:07.609Z,31.51
2019-05-09T15:08:13.645Z,31.21
2019-05-09T15:09:08.278Z,31.10
2019-05-09T15:10:08.636Z,31.71
2019-05-09T15:11:09.792Z,31.41
2019-05-09T15:12:06.617Z,31.81
2019-05-09T15:13:07.862Z,31.93
2019-05-09T15:14:08.275Z,32.64
2019-05-09T15:15:07.598Z,31.83
2019-05-09T15:16:08.721Z,32.44
2019-05-09T15:17:08.773Z,33.04
2019-05-09T15:18:08.117Z,32.86
2019-05-09T15:19:08.415Z,33.16
2019-05-09T15:20:08.877Z,32.96
2019-05-09T15:21:07.971Z,32.35
2019-05-09T15:22:08.350Z,32.56
2019-05-09T15:23:08.633Z,32.56
2019-05-09T15:24:08.901Z,32.45
2019-05-09T15:25:08.847Z,33.16
2019-05-09T15:26:07.686Z,32.67
2019-05-09T15:27:06.465Z,33.07
2019-05-09T15:28:08.274Z,32.77
2019-05-09T15:29:08.047Z,33.18
2019-05-09T15:30:06.432Z,33.18
2019-05-09T15:31:08.901Z,32.77
2019-05-09T15:32:11.884Z,32.57
2019-05-09T15:33:08.349Z,31.56
2019-05-09T15:34:08.790Z,31.56
2019-05-09T15:35:08.856Z,32.26
2019-05-09T15:36:09.030Z,31.96
2019-05-09T15:37:08.680Z,32.67
2019-05-09T15:38:08.624Z,32.89
2019-05-09T15:39:08.016Z,33.09
2019-05-09T15:40:19.175Z,33.09
2019-05-09T15:41:12.075Z,32.99
2019-05-09T15:42:07.522Z,33.19
2019-05-09T15:43:08.296Z,33.29
2019-05-09T15:44:08.315Z,33.82
2019-05-09T15:45:07.721Z,33.82
2019-05-09T15:46:08.342Z,33.31
2019-05-09T15:47:07.573Z,33.41
2019-05-09T15:48:07.680Z,33.82
2019-05-09T15:49:07.679Z,33.62
2019-05-09T15:50:18.416Z,33.83
2019-05-09T15:51:07.666Z,33.33
2019-05-09T15:52:07.420Z,33.53
2019-05-09T15:53:08.458Z,33.73
2019-05-09T15:54:08.277Z,33.82
2019-05-09T15:55:09.154Z,33.82
2019-05-09T15:56:07.980Z,33.41
2019-05-09T15:57:08.481Z,33.83
2019-05-09T15:58:06.215Z,33.63
2019-05-09T15:59:06.134Z,33.63
2019-05-09T16:00:08.228Z,33.02
2019-05-09T16:01:08.107Z,33.34
2019-05-09T16:02:06.081Z,33.12
2019-05-09T16:03:06.080Z,33.85
2019-05-09T16:04:08.428Z,33.34
2019-05-09T16:05:10.035Z,33.54
2019-05-09T16:06:08.873Z,34.05
2019-05-09T16:07:06.033Z,33.75
2019-05-09T16:08:09.027Z,33.65
2019-05-09T16:09:11.354Z,33.95
2019-05-09T16:10:08.577Z,33.65
2019-05-09T16:11:13.795Z,33.75
2019-05-09T16:12:07.768Z,33.66
2019-05-09T16:13:08.084Z,33.97
2019-05-09T16:14:07.593Z,33.24
2019-05-09T16:15:07.823Z,33.85
2019-05-09T16:16:08.776Z,33.76
2019-05-09T16:17:07.860Z,33.46
2019-05-09T16:18:08.443Z,33.56
2019-05-09T16:19:05.906Z,33.26
2019-05-09T16:20:08.249Z,33.46
2019-05-09T16:21:08.281Z,33.26
2019-05-09T16:22:07.962Z,33.15
2019-05-09T16:23:08.414Z,33.46
2019-05-09T16:24:08.087Z,33.17
2019-05-09T16:25:05.827Z,32.87
2019-05-09T16:26:07.797Z,33.17
2019-05-09T16:27:08.527Z,32.87
2019-05-09T16:28:08.120Z,32.76
2019-05-09T16:29:08.285Z,33.07
2019-05-09T16:30:08.260Z,32.87
2019-05-09T16:31:05.759Z,32.87
2019-05-09T16:32:05.783Z,33.58
2019-05-09T16:33:07.932Z,33.17
2019-05-09T16:34:09.160Z,33.68
2019-05-09T16:35:07.950Z,33.07
2019-05-09T16:36:05.784Z,32.98
2019-05-09T16:37:07.636Z,33.08
2019-05-09T16:38:07.965Z,32.98
2019-05-09T16:39:07.412Z,33.17
2019-05-09T16:40:05.662Z,31.86
2019-05-09T16:41:07.714Z,31.86
2019-05-09T16:42:05.670Z,31.66
2019-05-09T16:43:13.274Z,31.66
2019-05-09T16:44:07.747Z,31.56
2019-05-09T16:45:07.871Z,31.05
2019-05-09T16:46:07.551Z,31.46
2019-05-09T16:47:05.601Z,31.86
2019-05-09T16:48:11.086Z,31.05
2019-05-09T16:49:11.526Z,31.76
2019-05-09T16:50:09.032Z,31.88
2019-05-09T16:51:07.912Z,31.88
2019-05-09T16:52:07.454Z,31.06
2019-05-09T16:53:08.707Z,31.06
2019-05-09T16:54:07.406Z,30.45
2019-05-09T16:55:08.067Z,30.65
2019-05-09T16:56:05.572Z,30.76
2019-05-09T16:57:08.074Z,30.76
2019-05-09T16:58:05.478Z,30.96
2019-05-09T16:59:05.460Z,30.76
2019-05-09T17:00:07.748Z,30.86
2019-05-09T17:01:05.487Z,30.96
2019-05-09T17:02:17.873Z,32.08
2019-05-09T17:03:08.097Z,31.48
2019-05-09T17:04:07.690Z,30.98
2019-05-09T17:05:05.393Z,30.45
2019-05-09T17:06:07.671Z,30.67
2019-05-09T17:07:05.447Z,30.46
2019-05-09T17:08:05.363Z,30.57
2019-05-09T17:09:05.350Z,30.67
2019-05-09T17:10:05.339Z,29.87
2019-05-09T17:11:07.626Z,29.66
2019-05-09T17:12:05.344Z,30.38
2019-05-09T17:13:07.630Z,30.48
2019-05-09T17:14:07.960Z,29.56
2019-05-09T17:15:12.263Z,30.68
2019-05-09T17:16:07.395Z,29.25
2019-05-09T17:17:05.263Z,30.68
2019-05-09T17:18:07.446Z,30.18
2019-05-09T17:19:05.243Z,30.89
2019-05-09T17:20:05.231Z,31.09
2019-05-09T17:21:15.944Z,30.49
2019-05-09T17:22:07.708Z,30.07
2019-05-09T17:23:11.658Z,31.10
2019-05-09T17:24:08.163Z,29.78
2019-05-09T17:25:05.178Z,30.29
2019-05-09T17:26:05.213Z,30.90
2019-05-09T17:27:05.151Z,30.90
2019-05-09T17:28:05.153Z,31.01
2019-05-09T17:29:05.151Z,31.01
2019-05-09T17:30:05.120Z,30.39
2019-05-09T17:31:05.142Z,31.43
2019-05-09T17:32:07.591Z,31.22
2019-05-09T17:33:05.086Z,30.51
2019-05-09T17:34:05.073Z,30.91
2019-05-09T17:35:05.146Z,31.32
2019-05-09T17:36:05.057Z,32.45
2019-05-09T17:37:05.044Z,32.24
2019-05-09T17:38:05.082Z,31.22
2019-05-09T17:39:05.091Z,31.02
2019-05-09T17:40:05.027Z,31.84
2019-05-09T17:41:05.050Z,32.14
2019-05-09T17:42:04.986Z,31.85
2019-05-09T17:43:08.095Z,31.65
2019-05-09T17:44:04.991Z,31.54
2019-05-09T17:45:04.969Z,31.54
2019-05-09T17:46:04.955Z,31.74
2019-05-09T17:47:12.327Z,31.85
2019-05-09T17:48:04.927Z,32.06
2019-05-09T17:49:04.914Z,32.97
2019-05-09T17:50:04.911Z,33.48
2019-05-09T17:51:04.911Z,33.28
2019-05-09T17:52:04.926Z,32.67
2019-05-09T17:53:04.919Z,33.18
2019-05-09T17:54:04.892Z,33.60
2019-05-09T17:55:07.274Z,33.29
2019-05-09T17:56:04.846Z,33.50
2019-05-09T17:57:04.870Z,33.60
2019-05-09T17:58:04.829Z,34.01
2019-05-09T17:59:04.808Z,33.81
2019-05-09T18:00:04.797Z,33.51
2019-05-09T18:01:04.789Z,33.60
2019-05-09T18:02:04.812Z,34.22
2019-05-09T18:03:04.797Z,33.82
2019-05-09T18:04:04.775Z,34.01
2019-05-09T18:05:04.746Z,34.31
2019-05-09T18:06:04.738Z,35.05
2019-05-09T18:07:04.735Z,34.74
2019-05-09T18:08:04.722Z,34.33
2019-05-09T18:09:04.822Z,34.44
2019-05-09T18:10:04.695Z,35.05
2019-05-09T18:11:04.687Z,35.05
2019-05-09T18:12:04.708Z,35.37
2019-05-09T18:13:04.659Z,35.78
2019-05-09T18:14:04.650Z,35.37
2019-05-09T18:15:04.648Z,34.96
2019-05-09T18:16:04.633Z,35.88
2019-05-09T18:17:04.639Z,36.08
2019-05-09T18:18:04.628Z,35.88
2019-05-09T18:19:11.573Z,35.49
2019-05-09T18:20:04.582Z,36.41
2019-05-09T18:21:04.579Z,36.60
2019-05-09T18:22:04.566Z,36.21
2019-05-09T18:23:04.585Z,36.41
2019-05-09T18:24:04.535Z,35.69
2019-05-09T18:25:04.528Z,36.00
2019-05-09T18:26:04.571Z,36.94
2019-05-09T18:27:04.510Z,37.23
2019-05-09T18:28:04.499Z,36.94
2019-05-09T18:29:04.511Z,37.14
2019-05-09T18:30:04.523Z,37.45
2019-05-09T18:31:04.460Z,37.24
2019-05-09T18:32:04.458Z,37.57
2019-05-09T18:33:04.439Z,37.98
2019-05-09T18:34:04.432Z,37.26
2019-05-09T18:35:04.525Z,36.96
2019-05-09T18:36:04.406Z,36.85
2019-05-09T18:37:04.441Z,38.08
2019-05-09T18:38:04.397Z,37.77
2019-05-09T18:39:04.381Z,37.57
2019-05-09T18:40:04.362Z,38.70
2019-05-09T18:41:07.237Z,39.21
2019-05-09T18:42:05.342Z,39.41
2019-05-09T18:43:04.331Z,38.59
2019-05-09T18:44:04.329Z,39.12
2019-05-09T18:45:04.338Z,38.90
2019-05-09T18:46:04.317Z,39.43
2019-05-09T18:47:04.287Z,38.92
2019-05-09T18:48:04.283Z,38.51
2019-05-09T18:49:04.308Z,38.51
2019-05-09T18:50:04.261Z,39.53
2019-05-09T18:51:11.902Z,39.65
2019-05-09T18:52:04.478Z,39.43
2019-05-09T18:53:04.220Z,39.35
2019-05-09T18:54:04.220Z,39.74
2019-05-09T18:55:04.205Z,39.55
2019-05-09T18:56:04.200Z,40.06
2019-05-09T18:57:04.232Z,39.55
2019-05-09T18:58:04.283Z,39.76
2019-05-09T18:59:04.223Z,39.55
2019-05-09T19:00:04.151Z,39.65
2019-05-09T19:01:04.189Z,39.55
2019-05-09T19:02:04.164Z,39.35
2019-05-09T19:03:04.162Z,39.25
2019-05-09T19:04:04.104Z,39.14
2019-05-09T19:05:04.099Z,40.27
2019-05-09T19:06:04.121Z,38.93
2019-05-09T19:07:04.083Z,40.06
2019-05-09T19:08:04.067Z,40.06
2019-05-09T19:09:04.067Z,39.35
2019-05-09T19:10:04.036Z,39.55
2019-05-09T19:11:04.028Z,39.65
2019-05-09T19:12:04.086Z,39.65
2019-05-09T19:13:04.006Z,39.25
2019-05-09T19:14:04.036Z,40.19
2019-05-09T19:15:03.987Z,40.29
2019-05-09T19:16:03.978Z,41.00
2019-05-09T19:17:04.091Z,40.90
2019-05-09T19:18:04.025Z,40.49
2019-05-09T19:19:03.952Z,40.90
2019-05-09T19:20:03.970Z,41.93
2019-05-09T19:21:03.917Z,41.53
2019-05-09T19:22:06.574Z,41.64
2019-05-09T19:24:13.707Z,41.85
2019-05-09T19:25:13.658Z,41.74
2019-05-09T19:26:13.645Z,43.30
2019-05-09T19:27:13.634Z,43.30
2019-05-09T19:28:13.626Z,43.91
2019-05-09T19:29:13.621Z,42.89
2019-05-09T19:30:13.631Z,43.94
2019-05-09T19:31:13.605Z,43.52
2019-05-09T19:32:13.596Z,43.22
2019-05-09T19:33:13.570Z,43.12
2019-05-09T19:34:13.566Z,44.04
2019-05-09T19:35:13.574Z,43.52
2019-05-09T19:36:13.569Z,43.84
2019-05-09T19:37:13.538Z,44.14
2019-05-09T19:38:13.523Z,44.45
2019-05-09T19:39:13.552Z,43.94
2019-05-09T19:40:13.501Z,44.24